createdAt,value
2022-11-07T00:00:23.166Z,8.73
2022-11-07T00:05:25.035Z,8.77
2022-11-07T00:10:26.969Z,8.83
2022-11-07T00:15:29.322Z,8.86
2022-11-07T00:20:31.273Z,8.89
2022-11-07T00:25:33.177Z,8.92
2022-11-07T00:30:35.307Z,8.94
2022-11-07T00:35:41.866Z,8.96
2022-11-07T00:40:44.153Z,8.99
2022-11-07T00:45:46.145Z,9.00
2022-11-07T00:50:48.267Z,9.01
2022-11-07T00:55:50.106Z,9.01
2022-11-07T01:00:51.934Z,9.02
2022-11-07T01:06:02.532Z,9.04
2022-11-07T01:11:07.237Z,9.05
2022-11-07T01:16:12.127Z,9.07
2022-11-07T01:21:16.690Z,9.07
2022-11-07T01:26:18.945Z,9.08
2022-11-07T01:31:21.460Z,9.03
2022-11-07T01:36:23.504Z,9.01
2022-11-07T01:41:28.982Z,8.94
2022-11-07T01:46:45.140Z,8.90
2022-11-07T01:52:04.261Z,8.86
2022-11-07T01:57:16.023Z,8.83
2022-11-07T02:02:18.257Z,8.80
2022-11-07T02:07:23.481Z,8.76
2022-11-07T02:12:27.358Z,8.69
2022-11-07T02:17:29.759Z,8.61
2022-11-07T02:22:50.672Z,8.54
2022-11-07T02:28:00.002Z,8.47
2022-11-07T02:33:03.039Z,8.37
2022-11-07T02:38:11.255Z,8.30
2022-11-07T02:43:15.221Z,8.22
2022-11-07T02:48:17.973Z,8.12
2022-11-07T02:53:20.004Z,8.05
2022-11-07T02:58:21.771Z,8.00
2022-11-07T03:03:27.267Z,7.93
2022-11-07T03:08:29.080Z,7.84
2022-11-07T03:13:30.995Z,7.85
2022-11-07T03:18:34.132Z,7.83
2022-11-07T03:23:36.842Z,7.79
2022-11-07T03:28:38.713Z,7.78
2022-11-07T03:33:40.516Z,7.75
2022-11-07T03:38:42.345Z,7.73
2022-11-07T03:43:47.694Z,7.69
2022-11-07T03:48:49.667Z,7.78
2022-11-07T03:53:51.536Z,7.82
2022-11-07T03:58:53.337Z,7.82
2022-11-07T04:03:56.318Z,7.82
2022-11-07T04:09:02.159Z,7.80
2022-11-07T04:14:22.353Z,7.78
2022-11-07T04:19:26.660Z,7.77
2022-11-07T04:24:29.632Z,7.76
2022-11-07T04:29:31.438Z,7.76
2022-11-07T04:34:33.301Z,7.76
2022-11-07T04:39:35.089Z,7.76
2022-11-07T04:44:37.036Z,7.79
2022-11-07T04:49:38.872Z,7.82
2022-11-07T04:54:49.742Z,7.85
2022-11-07T04:59:51.591Z,7.89
2022-11-07T05:04:53.537Z,7.95
2022-11-07T05:09:55.594Z,8.06
2022-11-07T05:14:58.580Z,8.18
2022-11-07T05:20:00.400Z,8.29
2022-11-07T05:25:02.191Z,8.36
2022-11-07T05:30:05.870Z,8.38
2022-11-07T05:35:08.258Z,8.36
2022-11-07T05:40:10.894Z,8.30
2022-11-07T05:45:12.711Z,8.24
2022-11-07T05:50:25.024Z,8.17
2022-11-07T05:55:27.060Z,8.09
2022-11-07T06:00:28.924Z,8.04
2022-11-07T06:05:31.060Z,8.01
2022-11-07T06:10:32.906Z,8.01
2022-11-07T06:15:36.380Z,8.00
2022-11-07T06:20:38.294Z,8.01
2022-11-07T06:25:40.286Z,8.05
2022-11-07T06:30:42.823Z,8.04
2022-11-07T06:35:45.766Z,7.99
2022-11-07T06:40:47.871Z,7.95
2022-11-07T06:45:49.797Z,7.92
2022-11-07T06:50:59.595Z,7.91
2022-11-07T06:56:02.896Z,7.92
2022-11-07T07:01:13.698Z,7.94
2022-11-07T07:06:17.034Z,8.02
2022-11-07T07:11:19.123Z,8.11
2022-11-07T07:16:20.915Z,8.21
2022-11-07T07:21:22.782Z,8.31
2022-11-07T07:26:24.555Z,8.41
2022-11-07T07:31:31.045Z,8.53
2022-11-07T07:36:33.254Z,8.68
2022-11-07T07:41:39.920Z,8.82
2022-11-07T07:46:42.204Z,8.96
2022-11-07T07:51:44.051Z,9.09
2022-11-07T07:56:45.844Z,9.20
2022-11-07T08:01:52.204Z,9.35
2022-11-07T08:06:57.418Z,9.53
2022-11-07T08:11:59.296Z,9.66
2022-11-07T08:17:01.460Z,9.81
2022-11-07T08:22:03.493Z,9.97
2022-11-07T08:27:05.519Z,10.11
2022-11-07T08:32:10.111Z,10.17
2022-11-07T08:37:11.935Z,10.18
2022-11-07T08:42:13.989Z,10.25
2022-11-07T08:47:16.057Z,10.37
2022-11-07T08:52:18.104Z,10.50
2022-11-07T08:57:20.019Z,10.61
2022-11-07T09:07:44.062Z,10.89
2022-11-07T09:12:50.361Z,11.02
2022-11-07T09:17:52.389Z,11.13
2022-11-07T09:23:04.212Z,11.25
2022-11-07T09:28:06.084Z,11.36
2022-11-07T09:33:14.400Z,11.42
2022-11-07T09:38:18.636Z,11.51
2022-11-07T09:44:05.125Z,11.60
2022-11-07T09:49:29.043Z,11.68
2022-11-07T09:54:38.085Z,11.78
2022-11-07T09:59:46.270Z,11.91
2022-11-07T10:04:56.943Z,12.05
2022-11-07T10:10:19.316Z,12.16
2022-11-07T10:16:08.292Z,12.27
2022-11-07T10:26:37.433Z,12.36
2022-11-07T10:31:44.524Z,12.42
2022-11-07T10:36:46.540Z,12.49
2022-11-07T10:42:09.668Z,12.54
2022-11-07T10:47:26.688Z,12.55
2022-11-07T10:52:29.847Z,12.56
2022-11-07T10:57:34.515Z,12.55
2022-11-07T11:02:48.356Z,12.52
2022-11-07T11:07:51.054Z,12.55
2022-11-07T11:12:53.389Z,12.59
2022-11-07T11:18:21.633Z,12.63
2022-11-07T11:23:26.939Z,12.67
2022-11-07T11:28:34.898Z,12.74
2022-11-07T11:33:45.344Z,12.80
2022-11-07T11:38:54.964Z,12.83
2022-11-07T11:44:37.295Z,12.83
2022-11-07T11:49:55.065Z,12.82
2022-11-07T11:55:00.525Z,12.78
2022-11-07T12:00:11.734Z,12.77
2022-11-07T12:05:32.181Z,12.74
2022-11-07T12:11:00.055Z,12.72
2022-11-07T12:16:44.030Z,12.73
2022-11-07T12:21:48.537Z,12.70
2022-11-07T12:27:14.839Z,12.69
2022-11-07T12:32:38.252Z,12.67
2022-11-07T12:38:17.600Z,12.66
2022-11-07T12:43:31.183Z,12.66
2022-11-07T12:49:11.435Z,12.67
2022-11-07T12:54:19.008Z,12.69
2022-11-07T12:59:25.872Z,12.68
2022-11-07T13:04:42.366Z,12.70
2022-11-07T13:09:56.705Z,12.72
2022-11-07T13:14:58.991Z,12.74
2022-11-07T13:20:39.151Z,12.79
2022-11-07T13:25:41.282Z,12.82
2022-11-07T13:30:55.945Z,12.85
2022-11-07T13:36:12.004Z,12.88
2022-11-07T13:41:15.960Z,12.91
2022-11-07T13:46:32.140Z,12.93
2022-11-07T13:51:38.957Z,12.95
2022-11-07T13:56:51.333Z,13.00
2022-11-07T14:01:57.325Z,13.06
2022-11-07T14:07:03.162Z,13.08
2022-11-07T14:12:05.295Z,13.06
2022-11-07T14:17:15.723Z,13.06
2022-11-07T14:22:26.308Z,13.08
2022-11-07T14:27:28.103Z,13.07
2022-11-07T14:32:32.157Z,13.04
2022-11-07T14:37:34.989Z,13.00
2022-11-07T14:42:38.355Z,12.96
2022-11-07T14:47:40.574Z,12.93
2022-11-07T14:52:48.108Z,12.90
2022-11-07T14:57:51.065Z,12.86
2022-11-07T15:02:55.653Z,12.81
2022-11-07T15:07:59.710Z,12.78
2022-11-07T15:13:04.753Z,12.75
2022-11-07T15:18:07.305Z,12.73
2022-11-07T15:23:12.263Z,12.72
2022-11-07T15:28:26.788Z,12.70
2022-11-07T15:33:33.058Z,12.69
2022-11-07T15:38:34.891Z,12.67
2022-11-07T15:43:36.763Z,12.66
2022-11-07T15:48:41.319Z,12.64
2022-11-07T15:53:43.419Z,12.61
2022-11-07T15:58:45.395Z,12.59
2022-11-07T16:03:47.266Z,12.55
2022-11-07T16:08:49.108Z,12.52
2022-11-07T16:13:51.150Z,12.45
2022-11-07T16:18:54.062Z,12.35
2022-11-07T16:23:55.912Z,12.25
2022-11-07T16:28:58.205Z,12.17
2022-11-07T16:34:00.165Z,12.10
2022-11-07T16:39:05.467Z,12.05
2022-11-07T16:44:07.461Z,12.03
2022-11-07T16:49:15.875Z,12.01
2022-11-07T16:54:18.013Z,12.00
2022-11-07T16:59:22.809Z,11.99
2022-11-07T17:04:24.616Z,12.02
2022-11-07T17:09:28.091Z,12.03
2022-11-07T17:14:31.229Z,12.04
2022-11-07T17:19:33.817Z,12.07
2022-11-07T17:24:35.689Z,12.06
2022-11-07T17:29:37.549Z,12.04
2022-11-07T17:34:39.446Z,12.03
2022-11-07T17:39:41.306Z,12.00
2022-11-07T17:44:43.203Z,12.00
2022-11-07T17:49:46.401Z,11.98
2022-11-07T17:54:48.587Z,11.96
2022-11-07T17:59:50.462Z,11.94
2022-11-07T18:04:52.319Z,11.90
2022-11-07T18:09:54.963Z,11.87
2022-11-07T18:14:57.153Z,11.83
2022-11-07T18:19:59.022Z,11.81
2022-11-07T18:25:00.918Z,11.79
2022-11-07T18:30:04.727Z,11.77
2022-11-07T18:35:06.704Z,11.77
2022-11-07T18:40:09.458Z,11.73
2022-11-07T18:45:12.920Z,11.73
2022-11-07T18:50:14.884Z,11.72
2022-11-07T18:55:16.735Z,11.73
2022-11-07T19:00:18.732Z,11.75
2022-11-07T19:05:20.705Z,11.75
2022-11-07T19:10:22.823Z,11.75
2022-11-07T19:15:27.164Z,11.73
2022-11-07T19:20:29.041Z,11.72
2022-11-07T19:25:30.937Z,11.71
2022-11-07T19:30:33.984Z,11.67
2022-11-07T19:35:38.231Z,11.66
2022-11-07T19:40:41.524Z,11.64
2022-11-07T19:45:44.125Z,11.64
2022-11-07T19:50:48.437Z,11.63
2022-11-07T19:55:50.363Z,11.64
2022-11-07T20:00:52.492Z,11.64
2022-11-07T20:05:54.618Z,11.62
2022-11-07T20:10:56.440Z,11.62
2022-11-07T20:15:59.303Z,11.61
2022-11-07T20:21:04.244Z,11.62
2022-11-07T20:26:33.074Z,11.64
2022-11-07T20:31:36.926Z,11.63
2022-11-07T20:36:39.236Z,11.63
2022-11-07T20:41:42.643Z,11.64
2022-11-07T20:46:45.975Z,11.63
2022-11-07T20:51:47.825Z,11.62
2022-11-07T20:56:49.904Z,11.61
2022-11-07T21:01:52.915Z,11.60
2022-11-07T21:06:54.941Z,11.60
2022-11-07T21:11:56.900Z,11.61
2022-11-07T21:16:58.895Z,11.59
2022-11-07T21:22:00.686Z,11.58
2022-11-07T21:27:02.750Z,11.59
2022-11-07T21:32:07.448Z,11.61
2022-11-07T21:37:09.848Z,11.64
2022-11-07T21:42:13.128Z,11.64
2022-11-07T21:47:15.110Z,11.63
2022-11-07T21:52:17.418Z,11.64
2022-11-07T21:57:19.208Z,11.66
2022-11-07T22:02:21.155Z,11.68
2022-11-07T22:07:23.411Z,11.68
2022-11-07T22:12:25.232Z,11.66
2022-11-07T22:17:27.149Z,11.67
2022-11-07T22:22:31.366Z,11.68
2022-11-07T22:27:33.162Z,11.69
2022-11-07T22:32:34.937Z,11.67
2022-11-07T22:37:36.914Z,11.65
2022-11-07T22:42:38.725Z,11.62
2022-11-07T22:47:40.762Z,11.60
2022-11-07T22:52:45.547Z,11.58
2022-11-07T22:57:47.371Z,11.57
2022-11-07T23:02:49.241Z,11.58
2022-11-07T23:07:52.916Z,11.59
2022-11-07T23:12:54.647Z,11.61
2022-11-07T23:17:56.400Z,11.61
2022-11-07T23:22:58.347Z,11.65
2022-11-07T23:28:00.135Z,11.66
2022-11-07T23:33:01.853Z,11.68
2022-11-07T23:38:04.097Z,11.71
2022-11-07T23:43:06.006Z,11.69
2022-11-07T23:48:31.868Z,11.69
2022-11-07T23:53:53.556Z,11.68
2022-11-07T23:59:14.503Z,11.68
